createdAt,value
2022-07-29T00:01:44.796Z,100.00
2022-07-29T00:04:14.753Z,100.00
2022-07-29T00:06:43.972Z,100.00
2022-07-29T00:09:12.853Z,100.00
2022-07-29T00:11:46.041Z,100.00
2022-07-29T00:14:15.381Z,100.00
2022-07-29T00:16:44.491Z,100.00
2022-07-29T00:19:13.581Z,100.00
2022-07-29T00:21:42.666Z,100.00
2022-07-29T00:24:11.746Z,100.00
2022-07-29T00:26:40.636Z,100.00
2022-07-29T00:29:33.759Z,100.00
2022-07-29T00:32:00.269Z,100.00
2022-07-29T00:34:46.878Z,100.00
2022-07-29T00:37:15.860Z,100.00
2022-07-29T00:39:45.213Z,100.00
2022-07-29T00:42:14.138Z,100.00
2022-07-29T00:44:44.705Z,100.00
2022-07-29T00:47:14.372Z,100.00
2022-07-29T00:49:44.514Z,100.00
2022-07-29T00:52:15.541Z,100.00
2022-07-29T00:54:46.489Z,100.00
2022-07-29T00:57:15.532Z,100.00
2022-07-29T00:59:45.729Z,100.00
2022-07-29T01:02:14.834Z,100.00
2022-07-29T01:04:43.798Z,100.00
2022-07-29T01:07:13.333Z,100.00
2022-07-29T01:09:45.726Z,100.00
2022-07-29T01:12:27.619Z,100.00
2022-07-29T01:14:58.506Z,100.00
2022-07-29T01:17:34.817Z,100.00
2022-07-29T01:20:12.273Z,100.00
2022-07-29T01:23:01.211Z,100.00
2022-07-29T01:26:11.200Z,100.00
2022-07-29T01:29:06.695Z,100.00
2022-07-29T01:31:51.359Z,100.00
2022-07-29T01:34:37.762Z,100.00
2022-07-29T01:37:20.464Z,100.00
2022-07-29T01:39:51.328Z,100.00
2022-07-29T01:42:27.717Z,100.00
2022-07-29T01:45:01.731Z,100.00
2022-07-29T01:47:37.037Z,100.00
2022-07-29T01:50:11.089Z,100.00
2022-07-29T01:52:45.106Z,100.00
2022-07-29T01:55:17.063Z,100.00
2022-07-29T01:57:48.871Z,100.00
2022-07-29T02:00:20.041Z,100.00
2022-07-29T02:02:51.111Z,100.00
2022-07-29T02:05:22.741Z,100.00
2022-07-29T02:07:53.730Z,100.00
2022-07-29T02:10:26.370Z,100.00
2022-07-29T02:12:57.208Z,100.00
2022-07-29T02:15:30.962Z,100.00
2022-07-29T02:18:04.145Z,100.00
2022-07-29T02:20:34.024Z,100.00
2022-07-29T02:23:04.360Z,100.00
2022-07-29T02:25:37.647Z,100.00
2022-07-29T02:28:09.702Z,100.00
2022-07-29T02:30:44.653Z,100.00
2022-07-29T02:33:16.801Z,100.00
2022-07-29T02:35:47.566Z,100.00
2022-07-29T02:38:41.679Z,100.00
2022-07-29T02:41:16.664Z,100.00
2022-07-29T02:43:47.533Z,100.00
2022-07-29T02:46:29.003Z,100.00
2022-07-29T02:49:04.229Z,100.00
2022-07-29T02:51:44.739Z,100.00
2022-07-29T02:54:24.964Z,100.00
2022-07-29T02:56:56.610Z,100.00
2022-07-29T02:59:29.208Z,100.00
2022-07-29T03:02:02.199Z,100.00
2022-07-29T03:04:33.541Z,100.00
2022-07-29T03:07:03.079Z,100.00
2022-07-29T03:09:32.624Z,100.00
2022-07-29T03:12:02.983Z,100.00
2022-07-29T03:14:33.197Z,100.00
2022-07-29T03:17:04.654Z,100.00
2022-07-29T03:19:34.244Z,100.00
2022-07-29T03:22:03.559Z,100.00
2022-07-29T03:24:34.911Z,100.00
2022-07-29T03:27:05.180Z,100.00
2022-07-29T03:29:34.884Z,100.00
2022-07-29T03:32:08.410Z,100.00
2022-07-29T03:34:39.474Z,100.00
2022-07-29T03:37:09.096Z,100.00
2022-07-29T03:39:43.640Z,100.00
2022-07-29T03:42:15.838Z,100.00
2022-07-29T03:44:47.904Z,100.00
2022-07-29T03:47:21.526Z,100.00
2022-07-29T03:49:54.742Z,100.00
2022-07-29T03:52:23.908Z,100.00
2022-07-29T03:54:53.066Z,100.00
2022-07-29T03:57:26.898Z,100.00
2022-07-29T03:59:55.841Z,100.00
2022-07-29T04:02:30.683Z,100.00
2022-07-29T04:04:59.926Z,100.00
2022-07-29T04:07:28.882Z,100.00
2022-07-29T04:09:58.196Z,100.00
2022-07-29T04:12:28.398Z,100.00
2022-07-29T04:14:57.274Z,100.00
2022-07-29T04:17:27.498Z,100.00
2022-07-29T04:19:56.396Z,100.00
2022-07-29T04:22:25.189Z,100.00
2022-07-29T04:25:00.323Z,100.00
2022-07-29T04:27:32.444Z,100.00
2022-07-29T04:30:01.539Z,100.00
2022-07-29T04:32:32.643Z,100.00
2022-07-29T04:35:02.460Z,100.00
2022-07-29T04:37:31.295Z,100.00
2022-07-29T04:40:00.232Z,100.00
2022-07-29T04:42:29.428Z,100.00
2022-07-29T04:44:58.893Z,100.00
2022-07-29T04:47:32.089Z,100.00
2022-07-29T04:50:02.480Z,100.00
2022-07-29T04:52:31.446Z,100.00
2022-07-29T04:55:00.547Z,100.00
2022-07-29T04:57:29.548Z,100.00
2022-07-29T04:59:58.742Z,100.00
2022-07-29T05:02:28.292Z,100.00
2022-07-29T05:04:58.805Z,100.00
2022-07-29T05:07:27.846Z,100.00
2022-07-29T05:09:58.029Z,100.00
2022-07-29T05:12:27.929Z,100.00
2022-07-29T05:14:59.409Z,100.00
2022-07-29T05:17:28.774Z,100.00
2022-07-29T05:19:59.357Z,100.00
2022-07-29T05:22:28.358Z,100.00
2022-07-29T05:24:57.602Z,100.00
2022-07-29T05:27:26.612Z,100.00
2022-07-29T05:29:55.996Z,100.00
2022-07-29T05:32:25.445Z,100.00
2022-07-29T05:34:54.685Z,98.33
2022-07-29T05:37:24.924Z,100.00
2022-07-29T05:39:57.115Z,100.00
2022-07-29T05:42:28.715Z,96.54
2022-07-29T05:44:58.278Z,98.37
2022-07-29T05:47:27.533Z,100.00
2022-07-29T05:49:56.694Z,94.52
2022-07-29T05:52:27.255Z,97.05
2022-07-29T05:54:56.092Z,100.00
2022-07-29T05:57:26.087Z,100.00
2022-07-29T05:59:55.615Z,100.00
2022-07-29T06:02:24.781Z,94.49
2022-07-29T06:04:53.957Z,95.41
2022-07-29T06:07:23.341Z,93.27
2022-07-29T06:09:54.472Z,93.25
2022-07-29T06:12:25.793Z,89.21
2022-07-29T06:14:54.788Z,88.11
2022-07-29T06:17:26.522Z,84.44
2022-07-29T06:19:55.900Z,82.40
2022-07-29T06:22:24.867Z,80.81
2022-07-29T06:24:58.158Z,80.22
2022-07-29T06:27:27.222Z,78.11
2022-07-29T06:29:56.237Z,79.13
2022-07-29T06:32:27.505Z,72.65
2022-07-29T06:35:11.843Z,75.48
2022-07-29T06:37:45.750Z,70.67
2022-07-29T06:40:36.684Z,67.42
2022-07-29T06:43:06.227Z,65.38
2022-07-29T06:45:36.781Z,62.93
2022-07-29T06:48:09.633Z,64.19
2022-07-29T06:50:38.703Z,68.25
2022-07-29T06:53:07.734Z,66.07
2022-07-29T06:55:38.332Z,64.91
2022-07-29T06:58:08.309Z,61.46
2022-07-29T07:00:37.301Z,59.20
2022-07-29T07:03:06.845Z,61.96
2022-07-29T07:05:36.226Z,62.26
2022-07-29T07:08:05.603Z,64.29
2022-07-29T07:10:35.140Z,63.35
2022-07-29T07:13:08.285Z,64.65
2022-07-29T07:15:39.684Z,62.08
2022-07-29T07:18:09.800Z,60.08
2022-07-29T07:20:39.515Z,58.36
2022-07-29T07:23:11.215Z,57.99
2022-07-29T07:25:40.113Z,56.32
2022-07-29T07:28:10.567Z,54.70
2022-07-29T07:30:39.715Z,55.73
2022-07-29T07:33:08.876Z,55.39
2022-07-29T07:35:37.873Z,54.13
2022-07-29T07:38:07.825Z,52.56
2022-07-29T07:40:37.192Z,52.79
2022-07-29T07:43:06.560Z,52.22
2022-07-29T07:45:38.670Z,51.47
2022-07-29T07:48:11.306Z,50.47
2022-07-29T07:50:40.220Z,50.16
2022-07-29T07:53:09.436Z,50.28
2022-07-29T07:56:08.126Z,50.13
2022-07-29T07:58:31.421Z,50.02
2022-07-29T08:01:01.800Z,48.73
2022-07-29T08:03:31.092Z,48.12
2022-07-29T08:06:00.090Z,47.32
2022-07-29T08:08:29.208Z,46.84
2022-07-29T08:10:58.099Z,46.42
2022-07-29T08:13:29.352Z,47.48
2022-07-29T08:16:02.822Z,47.27
2022-07-29T08:18:33.694Z,47.82
2022-07-29T08:21:02.515Z,48.21
2022-07-29T08:23:46.439Z,48.10
2022-07-29T08:26:17.029Z,47.36
2022-07-29T08:28:51.298Z,46.56
2022-07-29T08:31:20.399Z,45.08
2022-07-29T08:33:51.180Z,43.88
2022-07-29T08:36:24.862Z,41.70
2022-07-29T08:38:54.110Z,42.35
2022-07-29T08:41:23.145Z,43.06
2022-07-29T08:43:52.978Z,42.06
2022-07-29T08:46:23.175Z,41.48
2022-07-29T08:48:53.502Z,41.31
2022-07-29T08:51:22.975Z,39.95
2022-07-29T08:53:52.591Z,41.22
2022-07-29T08:56:22.609Z,43.65
2022-07-29T08:58:52.713Z,44.25
2022-07-29T09:01:36.166Z,42.78
2022-07-29T09:04:15.113Z,40.86
2022-07-29T09:06:53.878Z,40.80
2022-07-29T09:09:22.941Z,40.93
2022-07-29T09:11:52.382Z,40.66
2022-07-29T09:14:21.879Z,41.85
2022-07-29T09:16:54.362Z,42.10
2022-07-29T09:19:27.470Z,42.61
2022-07-29T09:22:00.455Z,42.45
2022-07-29T09:24:46.241Z,41.85
2022-07-29T09:27:24.505Z,41.86
2022-07-29T09:30:00.868Z,42.47
2022-07-29T09:32:30.667Z,42.60
2022-07-29T09:35:21.577Z,43.80
2022-07-29T09:37:51.122Z,41.73
2022-07-29T09:40:23.058Z,41.17
2022-07-29T09:42:53.941Z,39.57
2022-07-29T09:45:31.352Z,42.53
2022-07-29T09:48:04.368Z,39.29
2022-07-29T09:50:42.430Z,38.58
2022-07-29T09:53:11.671Z,37.18
2022-07-29T09:55:51.792Z,40.94
2022-07-29T09:58:23.639Z,40.28
2022-07-29T10:00:54.922Z,38.84
2022-07-29T10:03:24.432Z,39.57
2022-07-29T10:06:09.405Z,40.07
2022-07-29T10:08:38.788Z,38.44
2022-07-29T10:11:13.130Z,37.90
2022-07-29T10:13:42.999Z,38.70
2022-07-29T10:16:12.441Z,37.19
2022-07-29T10:18:44.640Z,36.15
2022-07-29T10:21:22.543Z,36.29
2022-07-29T10:24:04.583Z,33.72
2022-07-29T10:26:33.984Z,31.35
2022-07-29T10:29:03.887Z,29.66
2022-07-29T10:31:45.739Z,29.31
2022-07-29T10:34:22.194Z,32.37
2022-07-29T10:36:58.929Z,33.28
2022-07-29T10:39:45.234Z,32.38
2022-07-29T10:42:29.640Z,28.38
2022-07-29T10:45:04.407Z,25.93
2022-07-29T10:47:35.128Z,28.76
2022-07-29T10:50:06.235Z,33.25
2022-07-29T10:52:57.465Z,32.03
2022-07-29T10:55:37.836Z,31.04
2022-07-29T10:58:14.621Z,30.92
2022-07-29T11:00:45.665Z,30.37
2022-07-29T11:03:49.542Z,32.53
2022-07-29T11:06:26.369Z,26.80
2022-07-29T11:09:34.990Z,24.06
2022-07-29T11:12:27.809Z,26.57
2022-07-29T11:15:03.660Z,23.68
2022-07-29T11:18:06.952Z,24.97
2022-07-29T11:20:41.595Z,28.07
2022-07-29T11:23:33.367Z,30.77
2022-07-29T11:26:23.379Z,31.96
2022-07-29T11:29:06.074Z,32.75
2022-07-29T11:31:38.016Z,32.98
2022-07-29T11:34:22.865Z,33.70
2022-07-29T11:37:27.757Z,34.48
2022-07-29T11:40:18.548Z,37.25
2022-07-29T11:42:52.675Z,36.32
2022-07-29T11:45:42.818Z,36.75
2022-07-29T11:48:29.608Z,34.81
2022-07-29T11:51:03.019Z,34.29
2022-07-29T11:53:33.246Z,33.99
2022-07-29T11:56:03.454Z,33.25
2022-07-29T11:58:34.527Z,31.84
2022-07-29T12:01:04.466Z,31.63
2022-07-29T12:03:36.928Z,31.81
2022-07-29T12:06:15.110Z,30.28
2022-07-29T12:08:45.521Z,24.66
2022-07-29T12:11:20.430Z,31.20
2022-07-29T12:13:51.625Z,32.01
2022-07-29T12:16:26.494Z,34.26
2022-07-29T12:19:03.846Z,35.15
2022-07-29T12:21:56.990Z,34.20
2022-07-29T12:24:29.939Z,35.66
2022-07-29T12:26:59.896Z,36.04
2022-07-29T12:29:34.656Z,36.99
2022-07-29T12:32:14.883Z,37.56
2022-07-29T12:34:49.139Z,37.28
2022-07-29T12:37:18.722Z,37.11
2022-07-29T12:39:47.897Z,37.25
2022-07-29T12:42:19.098Z,38.48
2022-07-29T12:44:51.028Z,37.08
2022-07-29T12:47:22.137Z,37.46
2022-07-29T12:49:52.600Z,35.99
2022-07-29T12:52:31.801Z,32.90
2022-07-29T12:55:01.913Z,31.17
2022-07-29T12:57:31.375Z,33.12
2022-07-29T13:00:11.637Z,33.47
2022-07-29T13:02:42.421Z,31.86
2022-07-29T13:05:14.042Z,29.11
2022-07-29T13:07:55.882Z,27.52
2022-07-29T13:10:26.967Z,26.66
2022-07-29T13:13:07.613Z,29.08
2022-07-29T13:15:39.318Z,29.41
2022-07-29T13:18:28.935Z,26.29
2022-07-29T13:20:59.121Z,29.29
2022-07-29T13:23:28.240Z,31.02
2022-07-29T13:25:57.244Z,29.65
2022-07-29T13:28:26.135Z,28.68
2022-07-29T13:30:56.509Z,29.15
2022-07-29T13:33:25.404Z,26.34
2022-07-29T13:35:54.355Z,23.66
2022-07-29T13:38:23.146Z,27.14
2022-07-29T13:41:00.543Z,30.30
2022-07-29T13:43:29.587Z,32.09
2022-07-29T13:45:59.950Z,31.44
2022-07-29T13:48:28.849Z,32.88
2022-07-29T13:50:58.860Z,35.65
2022-07-29T13:53:28.884Z,36.35
2022-07-29T13:55:57.920Z,36.66
2022-07-29T13:58:26.760Z,37.51
2022-07-29T14:00:55.593Z,37.97
2022-07-29T14:03:26.132Z,38.11
2022-07-29T14:05:54.985Z,38.31
2022-07-29T14:08:24.323Z,38.34
2022-07-29T14:10:54.523Z,37.65
2022-07-29T14:13:25.252Z,36.33
2022-07-29T14:15:54.865Z,34.97
2022-07-29T14:18:25.519Z,33.66
2022-07-29T14:20:54.503Z,29.59
2022-07-29T14:23:23.373Z,27.63
2022-07-29T14:25:52.349Z,30.82
2022-07-29T14:28:22.854Z,34.11
2022-07-29T14:30:54.811Z,35.36
2022-07-29T14:33:25.303Z,34.92
2022-07-29T14:36:01.055Z,27.54
2022-07-29T14:38:33.307Z,24.47
2022-07-29T14:41:02.757Z,24.49
2022-07-29T14:43:33.159Z,23.52
2022-07-29T14:46:07.934Z,24.43
2022-07-29T14:48:38.772Z,27.65
2022-07-29T14:51:07.587Z,31.73
2022-07-29T14:53:36.433Z,31.24
2022-07-29T14:56:33.875Z,30.35
2022-07-29T14:58:54.744Z,33.72
2022-07-29T15:01:23.602Z,30.76
2022-07-29T15:03:57.984Z,26.31
2022-07-29T15:06:28.624Z,25.01
2022-07-29T15:08:57.703Z,24.29
2022-07-29T15:11:26.614Z,27.79
2022-07-29T15:13:55.653Z,25.36
2022-07-29T15:16:25.112Z,25.52
2022-07-29T15:18:57.739Z,24.97
2022-07-29T15:21:30.309Z,26.22
2022-07-29T15:23:59.367Z,28.61
2022-07-29T15:26:28.721Z,28.36
2022-07-29T15:28:57.767Z,31.28
2022-07-29T15:31:26.799Z,28.78
2022-07-29T15:34:01.274Z,28.27
2022-07-29T15:39:24.100Z,31.60
2022-07-29T15:41:57.776Z,35.05
2022-07-29T15:44:27.040Z,36.35
2022-07-29T15:47:06.165Z,32.13
2022-07-29T15:49:47.289Z,35.51
2022-07-29T15:52:25.745Z,36.91
2022-07-29T15:54:57.683Z,38.55
2022-07-29T15:57:27.045Z,39.46
2022-07-29T15:59:56.022Z,40.96
2022-07-29T16:02:24.881Z,42.65
2022-07-29T16:04:55.221Z,45.34
2022-07-29T16:07:24.151Z,52.06
2022-07-29T16:10:00.102Z,53.94
2022-07-29T16:12:29.340Z,57.66
2022-07-29T16:14:58.836Z,60.48
2022-07-29T16:17:27.914Z,61.95
2022-07-29T16:19:58.198Z,62.70
2022-07-29T16:22:27.085Z,61.58
2022-07-29T16:24:56.218Z,63.48
2022-07-29T16:27:35.628Z,64.83
2022-07-29T16:30:10.081Z,71.86
2022-07-29T16:32:40.037Z,72.90
2022-07-29T16:35:10.785Z,74.22
2022-07-29T16:37:40.519Z,73.68
2022-07-29T16:40:11.811Z,71.16
2022-07-29T16:42:46.990Z,74.40
2022-07-29T16:45:16.800Z,73.00
2022-07-29T16:47:47.130Z,78.29
2022-07-29T16:50:19.175Z,76.25
2022-07-29T16:52:48.380Z,75.17
2022-07-29T16:55:17.332Z,77.51
2022-07-29T16:57:47.036Z,75.97
2022-07-29T17:00:17.610Z,77.45
2022-07-29T17:02:47.076Z,79.40
2022-07-29T17:05:17.334Z,80.74
2022-07-29T17:07:46.564Z,78.03
2022-07-29T17:10:15.537Z,76.29
2022-07-29T17:12:44.800Z,78.47
2022-07-29T17:15:14.087Z,80.02
2022-07-29T17:17:56.563Z,85.15
2022-07-29T17:20:33.181Z,81.30
2022-07-29T17:23:02.752Z,84.10
2022-07-29T17:25:31.641Z,85.81
2022-07-29T17:28:01.232Z,80.12
2022-07-29T17:30:30.734Z,84.01
2022-07-29T17:32:59.824Z,91.04
2022-07-29T17:35:48.730Z,93.19
2022-07-29T17:38:17.714Z,96.97
2022-07-29T17:40:46.864Z,99.17
2022-07-29T17:43:15.928Z,100.00
2022-07-29T17:45:49.519Z,100.00
2022-07-29T17:48:20.205Z,100.00
2022-07-29T17:50:50.476Z,100.00
2022-07-29T17:53:19.965Z,100.00
2022-07-29T17:55:50.074Z,100.00
2022-07-29T17:58:19.100Z,100.00
2022-07-29T18:00:48.335Z,100.00
2022-07-29T18:03:18.039Z,100.00
2022-07-29T18:05:47.476Z,100.00
2022-07-29T18:08:18.095Z,100.00
2022-07-29T18:10:47.818Z,100.00
2022-07-29T18:13:17.937Z,100.00
2022-07-29T18:15:48.488Z,100.00
2022-07-29T18:18:18.416Z,100.00
2022-07-29T18:20:47.908Z,100.00
2022-07-29T18:23:18.196Z,100.00
2022-07-29T18:25:47.291Z,100.00
2022-07-29T18:28:16.446Z,100.00
2022-07-29T18:30:47.513Z,100.00
2022-07-29T18:33:22.048Z,100.00
2022-07-29T18:36:10.634Z,100.00
2022-07-29T18:38:42.474Z,100.00
2022-07-29T18:41:11.682Z,100.00
2022-07-29T18:43:40.622Z,100.00
2022-07-29T18:46:09.581Z,100.00
2022-07-29T18:48:39.286Z,100.00
2022-07-29T18:51:11.043Z,100.00
2022-07-29T18:53:40.433Z,100.00
2022-07-29T18:56:10.564Z,100.00
2022-07-29T18:58:39.454Z,100.00
2022-07-29T19:01:09.914Z,100.00
2022-07-29T19:03:41.388Z,100.00
2022-07-29T19:06:13.356Z,100.00
2022-07-29T19:08:42.214Z,100.00
2022-07-29T19:11:13.230Z,100.00
2022-07-29T19:13:42.454Z,100.00
2022-07-29T19:16:13.475Z,100.00
2022-07-29T19:18:43.205Z,100.00
2022-07-29T19:21:12.346Z,100.00
2022-07-29T19:24:06.184Z,100.00
2022-07-29T19:26:31.759Z,100.00
2022-07-29T19:29:00.921Z,100.00
2022-07-29T19:31:30.090Z,100.00
2022-07-29T19:33:59.217Z,100.00
2022-07-29T19:36:28.598Z,100.00
2022-07-29T19:38:57.458Z,100.00
2022-07-29T19:41:26.334Z,100.00
2022-07-29T19:43:58.090Z,100.00
2022-07-29T19:46:29.070Z,100.00
2022-07-29T19:48:58.554Z,100.00
2022-07-29T19:51:27.843Z,100.00
2022-07-29T19:53:56.823Z,100.00
2022-07-29T19:56:27.312Z,100.00
2022-07-29T19:58:58.972Z,100.00
2022-07-29T20:01:28.178Z,100.00
2022-07-29T20:03:57.084Z,100.00
2022-07-29T20:06:27.181Z,100.00
2022-07-29T20:08:58.749Z,100.00
2022-07-29T20:11:29.898Z,100.00
2022-07-29T20:14:02.447Z,100.00
2022-07-29T20:16:31.408Z,100.00
2022-07-29T20:19:00.423Z,100.00
2022-07-29T20:21:29.430Z,100.00
2022-07-29T20:24:00.687Z,100.00
2022-07-29T20:26:29.580Z,100.00
2022-07-29T20:28:58.752Z,100.00
2022-07-29T20:31:30.668Z,100.00
2022-07-29T20:33:59.762Z,100.00
2022-07-29T20:36:29.301Z,100.00
2022-07-29T20:39:00.173Z,100.00
2022-07-29T20:41:29.492Z,100.00
2022-07-29T20:43:58.512Z,100.00
2022-07-29T20:46:28.853Z,100.00
2022-07-29T20:48:57.805Z,100.00
2022-07-29T20:51:26.880Z,100.00
2022-07-29T20:53:56.026Z,100.00
2022-07-29T20:56:25.089Z,100.00
2022-07-29T20:58:54.004Z,100.00
2022-07-29T21:01:22.826Z,100.00
2022-07-29T21:03:53.175Z,100.00
2022-07-29T21:06:22.436Z,100.00
2022-07-29T21:08:51.879Z,100.00
2022-07-29T21:11:21.308Z,100.00
2022-07-29T21:14:17.409Z,100.00
2022-07-29T21:16:46.529Z,100.00
2022-07-29T21:19:16.729Z,100.00
2022-07-29T21:21:45.831Z,100.00
2022-07-29T21:24:14.774Z,100.00
2022-07-29T21:26:50.620Z,100.00
2022-07-29T21:29:28.030Z,100.00
2022-07-29T21:31:57.114Z,100.00
2022-07-29T21:34:28.202Z,100.00
2022-07-29T21:36:57.084Z,100.00
2022-07-29T21:39:26.144Z,100.00
2022-07-29T21:41:55.182Z,100.00
2022-07-29T21:44:24.022Z,100.00
2022-07-29T21:46:52.951Z,100.00
2022-07-29T21:49:22.057Z,100.00
2022-07-29T21:51:52.401Z,100.00
2022-07-29T21:54:21.529Z,100.00
2022-07-29T21:56:51.381Z,100.00
2022-07-29T21:59:20.909Z,100.00
2022-07-29T22:01:49.861Z,100.00
2022-07-29T22:04:18.892Z,100.00
2022-07-29T22:06:47.708Z,100.00
2022-07-29T22:09:18.008Z,100.00
2022-07-29T22:11:47.952Z,100.00
2022-07-29T22:14:18.449Z,100.00
2022-07-29T22:16:48.031Z,100.00
2022-07-29T22:19:17.010Z,100.00
2022-07-29T22:21:47.458Z,100.00
2022-07-29T22:24:17.606Z,100.00
2022-07-29T22:26:46.874Z,100.00
2022-07-29T22:29:17.721Z,100.00
2022-07-29T22:31:49.246Z,100.00
2022-07-29T22:34:18.161Z,100.00
2022-07-29T22:36:46.993Z,100.00
2022-07-29T22:39:17.585Z,100.00
2022-07-29T22:41:46.577Z,100.00
2022-07-29T22:44:15.569Z,100.00
2022-07-29T22:46:44.599Z,100.00
2022-07-29T22:49:13.530Z,100.00
2022-07-29T22:51:42.384Z,100.00
2022-07-29T22:54:11.172Z,100.00
2022-07-29T22:56:41.302Z,100.00
2022-07-29T22:59:10.295Z,100.00
2022-07-29T23:01:39.148Z,100.00
2022-07-29T23:04:08.428Z,100.00
2022-07-29T23:06:37.477Z,100.00
2022-07-29T23:09:06.429Z,100.00
2022-07-29T23:11:35.455Z,100.00
2022-07-29T23:14:09.522Z,100.00
2022-07-29T23:16:38.735Z,100.00
2022-07-29T23:19:07.799Z,100.00
2022-07-29T23:21:36.762Z,100.00
2022-07-29T23:24:05.753Z,100.00
2022-07-29T23:26:36.847Z,100.00
2022-07-29T23:29:07.095Z,100.00
2022-07-29T23:31:36.080Z,100.00
2022-07-29T23:34:10.997Z,100.00
2022-07-29T23:36:40.116Z,100.00
2022-07-29T23:39:11.360Z,100.00
2022-07-29T23:41:40.338Z,100.00
2022-07-29T23:44:10.644Z,100.00
2022-07-29T23:46:39.450Z,100.00
2022-07-29T23:49:08.386Z,100.00
2022-07-29T23:51:37.389Z,100.00
2022-07-29T23:54:06.406Z,100.00
2022-07-29T23:56:35.156Z,100.00
2022-07-29T23:59:05.952Z,100.00
